地図

経路データ

SID SEASON NUMBER BASIN SUBBASIN NAME ISO_TIME NATURE LAT LON WMO_WIND WMO_PRES WMO_AGENCY TRACK_TYPE DIST2LAND LANDFALL IFLAG USA_AGENCY USA_ATCF_ID USA_LAT USA_LON USA_RECORD USA_STATUS USA_WIND USA_PRES USA_SSHS USA_R34_NE USA_R34_SE USA_R34_SW USA_R34_NW USA_R50_NE USA_R50_SE USA_R50_SW USA_R50_NW USA_R64_NE USA_R64_SE USA_R64_SW USA_R64_NW USA_POCI USA_ROCI USA_RMW USA_EYE TOKYO_LAT TOKYO_LON TOKYO_GRADE TOKYO_WIND TOKYO_PRES TOKYO_R50_DIR TOKYO_R50_LONG TOKYO_R50_SHORT TOKYO_R30_DIR TOKYO_R30_LONG TOKYO_R30_SHORT TOKYO_LAND CMA_LAT CMA_LON CMA_CAT CMA_WIND CMA_PRES HKO_LAT HKO_LON HKO_CAT HKO_WIND HKO_PRES NEWDELHI_LAT NEWDELHI_LON NEWDELHI_GRADE NEWDELHI_WIND NEWDELHI_PRES NEWDELHI_CI NEWDELHI_DP NEWDELHI_POCI REUNION_LAT REUNION_LON REUNION_TYPE REUNION_WIND REUNION_PRES REUNION_TNUM REUNION_CI REUNION_RMW REUNION_R34_NE REUNION_R34_SE REUNION_R34_SW REUNION_R34_NW REUNION_R50_NE REUNION_R50_SE REUNION_R50_SW REUNION_R50_NW REUNION_R64_NE REUNION_R64_SE REUNION_R64_SW REUNION_R64_NW BOM_LAT BOM_LON BOM_TYPE BOM_WIND BOM_PRES BOM_TNUM BOM_CI BOM_RMW BOM_R34_NE BOM_R34_SE BOM_R34_SW BOM_R34_NW BOM_R50_NE BOM_R50_SE BOM_R50_SW BOM_R50_NW BOM_R64_NE BOM_R64_SE BOM_R64_SW BOM_R64_NW BOM_ROCI BOM_POCI BOM_EYE BOM_POS_METHOD BOM_PRES_METHOD NADI_LAT NADI_LON NADI_CAT NADI_WIND NADI_PRES WELLINGTON_LAT WELLINGTON_LON WELLINGTON_WIND WELLINGTON_PRES DS824_LAT DS824_LON DS824_STAGE DS824_WIND DS824_PRES TD9636_LAT TD9636_LON TD9636_STAGE TD9636_WIND TD9636_PRES TD9635_LAT TD9635_LON TD9635_WIND TD9635_PRES TD9635_ROCI NEUMANN_LAT NEUMANN_LON NEUMANN_CLASS NEUMANN_WIND NEUMANN_PRES MLC_LAT MLC_LON MLC_CLASS MLC_WIND MLC_PRES USA_GUST BOM_GUST BOM_GUST_PER REUNION_GUST REUNION_GUST_PER USA_SEAHGT USA_SEARAD_NE USA_SEARAD_SE USA_SEARAD_SW USA_SEARAD_NW STORM_SPEED STORM_DIR
1894335S18414 1895 56 SI MM NOT_NAMED 1894-11-30 18:00:00 NR -18.0000 54.0000 main 362 356 __________O___ -1 -18.0000 54.0000 7 3 232
1894335S18414 1895 56 SI MM NOT_NAMED 1894-11-30 21:00:00 NR -18.0813 53.8938 main 356 350 __________P___ -1 -18.0813 53.8938 7 3 228
1894335S18414 1895 56 SI MM NOT_NAMED 1894-12-01 00:00:00 NR -18.1801 53.7900 main 350 345 __________P___ -1 -18.1801 53.7900 7 3 220
1894335S18414 1895 56 SI MM NOT_NAMED 1894-12-01 03:00:00 NR -18.3138 53.6912 main 345 331 __________P___ -1 -18.3138 53.6912 7 4 209
1894335S18414 1895 56 SI MM NOT_NAMED 1894-12-01 06:00:00 NR -18.5000 53.6000 main 331 318 __________O___ -1 -18.5000 53.6000 7 5 200
1894335S18414 1895 56 SI MM NOT_NAMED 1894-12-01 09:00:00 NR -18.7497 53.5178 main 318 292 __________P___ -1 -18.7497 53.5178 7 6 195
1894335S18414 1895 56 SI MM NOT_NAMED 1894-12-01 12:00:00 NR -19.0475 53.4425 main 299 267 __________P___ -1 -19.0475 53.4425 7 6 192
1894335S18414 1895 56 SI MM NOT_NAMED 1894-12-01 15:00:00 NR -19.3716 53.3709 main 267 252 __________P___ -1 -19.3716 53.3709 7 7 192
1894335S18414 1895 56 SI MM NOT_NAMED 1894-12-01 18:00:00 NR -19.7000 53.3000 main 252 239 __________O___ -1 -19.7000 53.3000 7 6 194
1894335S18414 1895 56 SI MM NOT_NAMED 1894-12-01 21:00:00 NR -19.9797 53.2129 main 241 231 __________P___ -1 -19.9797 53.2129 7 6 196
1894335S18414 1895 56 SI MM NOT_NAMED 1894-12-02 00:00:00 NR -20.2625 53.1276 main 236 228 __________P___ -1 -20.2625 53.1276 7 6 194
1894335S18414 1895 56 SI MM NOT_NAMED 1894-12-02 03:00:00 NR -20.5641 53.0536 main 225 225 __________P___ -1 -20.5641 53.0536 7 7 191
1894335S18414 1895 56 SI MM NOT_NAMED 1894-12-02 06:00:00 NR -20.9000 53.0000 main 229 228 __________O___ -1 -20.9000 53.0000 7 7 189
1894335S18414 1895 56 SI MM NOT_NAMED 1894-12-02 09:00:00 NR -21.2889 52.9305 main 239 239 __________P___ -1 -21.2889 52.9305 7 8 187
1894335S18414 1895 56 SI MM NOT_NAMED 1894-12-02 12:00:00 NR -21.7122 52.8889 main 247 247 __________P___ -1 -21.7122 52.8889 7 9 182
1894335S18414 1895 56 SI MM NOT_NAMED 1894-12-02 15:00:00 NR -22.1544 52.9027 main 267 267 __________P___ -1 -22.1544 52.9027 7 9 173
1894335S18414 1895 56 SI MM NOT_NAMED 1894-12-02 18:00:00 NR -22.6000 53.0000 main 278 275 __________O___ -1 -22.6000 53.0000 7 9 163
1894335S18414 1895 56 SI MM NOT_NAMED 1894-12-02 21:00:00 NR -23.0365 53.1998 main 287 287 __________P___ -1 -23.0365 53.1998 7 10 153
1894335S18414 1895 56 SI MM NOT_NAMED 1894-12-03 00:00:00 NR -23.4635 53.4846 main 307 307 __________P___ -1 -23.4635 53.4846 7 10 146
1894335S18414 1895 56 SI MM NOT_NAMED 1894-12-03 03:00:00 NR -23.8838 53.8272 main 328 324 __________P___ -1 -23.8838 53.8272 7 11 142
1894335S18414 1895 56 SI MM NOT_NAMED 1894-12-03 06:00:00 NR -24.3000 54.2000 main 353 __________O___ -1 -24.3000 54.2000 7 11 141

IBTrACS Databaseについて

本データベースは、米国NOAAが公開する1842年以降の世界の熱帯低気圧のベストトラックデータアーカイブInternational Best Track Archive for Climate Stewardship (IBTrACS)を、ウェブで閲覧しやすい形式に変換したものです。

最終更新日:2021-10-19